Time;durP1;ratioP1;P1;durP2;ratioP2;P2;SDS_P1;SDS_P2;PMS_P1;PMS_P2;Temp;Humidity;BMP_temperature;BMP_pressure;BME280_temperature;BME280_humidity;BME280_pressure;Samples;Min_cycle;Max_cycle;Signal;HPM_P1;HPM_P2
2023/11/02 00:01:12;;;;;;;2.30;1.87;;;8.80;98.00;;;;;;4994039;28;20523;-63
2023/11/02 00:03:42;;;;;;;2.17;1.70;;;8.50;98.00;;;;;;4993760;28;20483;-64
2023/11/02 00:06:26;;;;;;;3.63;1.70;;;;;;;;;;4994129;28;20850;-65
2023/11/02 00:09:27;;;;;;;4.43;2.20;;;8.30;98.00;;;;;;4993938;28;20460;-64
2023/11/02 00:11:56;;;;;;;2.43;2.07;;;8.20;98.00;;;;;;4988185;28;20450;-62
2023/11/02 00:14:28;;;;;;;2.23;1.73;;;8.20;98.00;;;;;;4993946;28;20547;-64
2023/11/02 00:16:56;;;;;;;1.90;1.60;;;8.20;98.00;;;;;;4994035;28;20449;-64
2023/11/02 00:19:30;;;;;;;3.70;2.13;;;8.10;98.00;;;;;;4993695;28;20475;-64
2023/11/02 00:21:58;;;;;;;3.90;2.10;;;8.10;98.00;;;;;;4993747;28;20451;-64
2023/11/02 00:24:27;;;;;;;3.10;1.93;;;8.00;98.00;;;;;;4993447;28;20487;-64
2023/11/02 00:26:55;;;;;;;3.07;1.93;;;8.20;98.00;;;;;;4993566;28;20864;-63
2023/11/02 00:29:24;;;;;;;3.37;2.00;;;8.20;98.00;;;;;;4976178;28;20483;-64
2023/11/02 00:31:55;;;;;;;3.10;1.90;;;8.10;98.00;;;;;;4993503;28;20462;-64
2023/11/02 00:34:22;;;;;;;3.93;2.17;;;8.20;98.00;;;;;;4993387;28;20502;-64
2023/11/02 00:36:49;;;;;;;4.60;2.20;;;8.00;98.00;;;;;;4993460;28;20459;-64
2023/11/02 00:39:17;;;;;;;2.30;1.60;;;7.90;98.00;;;;;;4993188;28;20451;-63
2023/11/02 00:41:44;;;;;;;3.47;2.20;;;7.80;98.00;;;;;;4992707;28;20455;-64
2023/11/02 00:44:12;;;;;;;2.93;1.97;;;8.00;98.00;;;;;;4993133;28;20489;-64
2023/11/02 00:46:40;;;;;;;3.33;2.00;;;7.70;98.00;;;;;;4992991;28;20453;-64
2023/11/02 00:49:17;;;;;;;3.80;2.00;;;7.70;98.00;;;;;;4992874;28;20493;-65
2023/11/02 00:51:44;;;;;;;3.30;2.10;;;7.80;98.00;;;;;;4991769;28;20457;-64
2023/11/02 00:54:52;;;;;;;2.57;1.80;;;7.70;98.00;;;;;;4993038;28;20453;-63
2023/11/02 00:57:23;;;;;;;4.50;2.40;;;7.70;98.00;;;;;;4993215;28;20466;-64
2023/11/02 00:59:51;;;;;;;11.43;2.70;;;7.70;98.00;;;;;;4992731;28;20464;-64
2023/11/02 01:02:20;;;;;;;3.00;2.07;;;7.60;98.00;;;;;;4992700;28;20465;-64
2023/11/02 01:04:56;;;;;;;2.87;2.10;;;7.50;98.00;;;;;;4992646;28;20497;-64
2023/11/02 01:07:24;;;;;;;6.13;2.20;;;7.50;98.00;;;;;;4992913;28;20453;-65
2023/11/02 01:09:59;;;;;;;2.83;1.90;;;7.50;98.00;;;;;;4992524;28;20483;-63
2023/11/02 01:12:31;;;;;;;3.37;2.10;;;7.40;98.00;;;;;;4992627;28;20504;-63
2023/11/02 01:14:59;;;;;;;1.90;1.63;;;7.60;98.00;;;;;;4992524;28;20448;-64
2023/11/02 01:17:32;;;;;;;7.23;2.33;;;7.50;98.00;;;;;;4992646;28;20875;-63
2023/11/02 01:20:08;;;;;;;5.50;2.00;;;7.40;98.00;;;;;;4992289;28;20463;-65
2023/11/02 01:22:59;;;;;;;4.60;2.23;;;7.30;98.00;;;;;;4992485;28;20550;-63
2023/11/02 01:25:30;;;;;;;3.87;2.13;;;7.40;98.00;;;;;;4987776;28;20553;-64
2023/11/02 01:28:01;;;;;;;4.33;2.37;;;7.50;98.00;;;;;;4992700;28;20469;-63
2023/11/02 01:31:12;;;;;;;4.20;2.30;;;7.70;98.00;;;;;;4991983;28;20472;-64
2023/11/02 01:34:01;;;;;;;3.47;2.03;;;7.90;98.00;;;;;;4992268;28;20528;-64
2023/11/02 01:36:31;;;;;;;3.47;2.13;;;8.10;98.00;;;;;;4992176;28;20467;-63
2023/11/02 01:39:02;;;;;;;3.30;2.20;;;7.90;98.00;;;;;;4992104;28;20459;-64
2023/11/02 01:41:43;;;;;;;3.67;2.30;;;7.90;98.00;;;;;;4992124;28;20558;-65
2023/11/02 01:44:19;;;;;;;4.83;1.80;;;7.90;98.00;;;;;;4992149;28;20490;-64
2023/11/02 01:46:55;;;;;;;3.20;2.00;;;7.80;98.00;;;;;;4992097;28;20502;-65
2023/11/02 01:49:40;;;;;;;2.70;2.13;;;7.60;98.00;;;;;;4991969;28;20458;-65
2023/11/02 01:52:16;;;;;;;2.90;2.00;;;7.70;98.00;;;;;;4992235;28;20447;-64
2023/11/02 01:54:48;;;;;;;3.37;2.10;;;7.70;98.00;;;;;;4991282;28;20459;-64
2023/11/02 01:57:23;;;;;;;2.40;1.83;;;7.80;98.00;;;;;;4992449;28;20463;-66
2023/11/02 01:59:56;;;;;;;3.03;2.13;;;7.80;98.00;;;;;;4992009;28;20470;-63
2023/11/02 02:02:29;;;;;;;5.30;2.00;;;7.80;98.00;;;;;;4991850;28;20463;-64
2023/11/02 02:05:03;;;;;;;3.97;2.30;;;7.80;98.00;;;;;;4991726;28;20487;-64
2023/11/02 02:07:39;;;;;;;4.00;1.87;;;7.90;98.00;;;;;;4991863;28;20483;-63
2023/11/02 02:10:13;;;;;;;3.00;2.30;;;8.10;98.00;;;;;;4991623;28;20460;-64
2023/11/02 02:13:03;;;;;;;2.20;1.87;;;8.00;98.00;;;;;;4991791;28;20458;-64
2023/11/02 02:15:36;;;;;;;3.77;2.00;;;8.00;98.00;;;;;;4991687;28;20527;-64
2023/11/02 02:18:10;;;;;;;3.83;1.97;;;8.00;98.00;;;;;;4991690;28;20461;-64
2023/11/02 02:20:43;;;;;;;2.97;1.90;;;7.90;98.00;;;;;;4991471;28;20454;-64
2023/11/02 02:23:16;;;;;;;2.27;1.80;;;7.90;98.00;;;;;;4991643;28;21028;-64
2023/11/02 02:25:52;;;;;;;2.73;2.10;;;8.00;98.00;;;;;;4991419;28;20494;-65
2023/11/02 02:28:42;;;;;;;2.10;1.80;;;8.00;98.00;;;;;;4991652;28;20463;-64
2023/11/02 02:31:20;;;;;;;2.80;2.10;;;8.00;98.00;;;;;;4991506;28;20454;-64
2023/11/02 02:34:29;;;;;;;3.90;2.00;;;7.90;98.00;;;;;;4991332;28;20465;-63
2023/11/02 02:37:07;;;;;;;2.33;1.80;;;7.90;98.00;;;;;;4991391;28;20482;-64
2023/11/02 02:39:39;;;;;;;2.80;2.03;;;8.00;98.00;;;;;;4990946;28;20494;-64
2023/11/02 02:42:08;;;;;;;2.73;2.17;;;8.10;98.00;;;;;;4991432;28;20495;-64
2023/11/02 02:44:36;;;;;;;4.07;2.20;;;8.30;98.00;;;;;;4974170;28;20905;-63
2023/11/02 02:47:04;;;;;;;5.63;2.30;;;8.40;98.00;;;;;;4991574;28;20564;-64
2023/11/02 02:49:39;;;;;;;3.47;2.27;;;8.50;98.00;;;;;;4991209;28;20492;-63
2023/11/02 02:52:09;;;;;;;3.60;1.97;;;8.70;98.00;;;;;;4991557;28;20466;-63
2023/11/02 02:54:42;;;;;;;4.60;2.50;;;8.70;98.00;;;;;;4991109;28;20491;-65
2023/11/02 02:57:12;;;;;;;2.80;1.93;;;8.80;98.00;;;;;;4991390;28;21025;-64
2023/11/02 02:59:45;;;;;;;3.93;2.13;;;8.90;98.00;;;;;;4991166;28;20456;-64
2023/11/02 03:02:13;;;;;;;6.33;2.07;;;9.00;98.00;;;;;;4991400;28;20939;-64
2023/11/02 03:04:45;;;;;;;3.40;2.07;;;9.00;98.00;;;;;;4991721;28;21020;-65
2023/11/02 03:07:16;;;;;;;2.67;1.80;;;9.00;98.00;;;;;;4978229;28;20529;-63
2023/11/02 03:09:46;;;;;;;3.50;2.10;;;9.00;98.00;;;;;;4994859;28;20959;-65
2023/11/02 03:12:23;;;;;;;2.87;2.00;;;9.10;98.00;;;;;;4995311;28;20553;-63
2023/11/02 03:14:51;;;;;;;2.20;1.80;;;9.10;98.00;;;;;;4994877;28;20458;-65
2023/11/02 03:17:27;;;;;;;3.40;2.40;;;9.00;98.00;;;;;;4994846;28;20463;-63
2023/11/02 03:19:54;;;;;;;4.33;2.10;;;9.00;98.00;;;;;;4994450;28;20471;-63
2023/11/02 03:22:23;;;;;;;3.50;2.20;;;9.00;98.00;;;;;;4994768;28;20460;-64
2023/11/02 03:25:02;;;;;;;3.90;2.40;;;9.10;98.00;;;;;;4994703;28;20519;-64
2023/11/02 03:27:38;;;;;;;3.57;2.03;;;9.20;98.00;;;;;;4994522;28;20472;-64
2023/11/02 03:30:10;;;;;;;3.37;2.00;;;9.20;98.00;;;;;;4994525;28;20552;-65
2023/11/02 03:32:48;;;;;;;3.33;2.17;;;9.20;98.00;;;;;;4994563;28;20452;-65
2023/11/02 03:35:21;;;;;;;4.70;2.20;;;9.10;98.00;;;;;;4994753;28;20698;-64
2023/11/02 03:38:07;;;;;;;3.03;1.63;;;9.00;98.00;;;;;;4994802;28;20468;-64
2023/11/02 03:40:44;;;;;;;5.57;2.00;;;9.00;98.00;;;;;;4994456;28;20468;-64
2023/11/02 03:43:17;;;;;;;3.80;1.77;;;9.00;98.00;;;;;;4994514;28;20458;-64
2023/11/02 03:46:05;;;;;;;2.40;1.97;;;8.90;98.00;;;;;;4994152;28;20576;-63
2023/11/02 03:48:42;;;;;;;3.00;2.00;;;9.00;98.00;;;;;;4994663;28;20876;-64
2023/11/02 03:51:26;;;;;;;6.70;2.33;;;9.20;98.00;;;;;;4994347;28;20456;-64
2023/11/02 03:54:06;;;;;;;3.40;2.00;;;9.30;98.00;;;;;;4994286;28;20478;-64
2023/11/02 03:56:51;;;;;;;7.80;2.80;;;9.40;98.00;;;;;;4994041;28;20973;-65
2023/11/02 03:59:24;;;;;;;2.80;2.17;;;9.30;98.00;;;;;;4992680;28;20585;-64
2023/11/02 04:02:00;;;;;;;5.20;2.00;;;9.20;98.00;;;;;;4994258;28;20460;-64
2023/11/02 04:04:36;;;;;;;5.47;2.63;;;9.10;98.00;;;;;;4993968;28;20572;-64
2023/11/02 04:07:10;;;;;;;4.50;2.23;;;9.10;98.00;;;;;;4993983;28;20538;-64
2023/11/02 04:09:48;;;;;;;3.00;2.10;;;9.30;98.00;;;;;;4993736;28;20952;-64
2023/11/02 04:12:31;;;;;;;3.17;2.13;;;9.30;98.00;;;;;;4994034;28;20913;-64
2023/11/02 04:15:01;;;;;;;3.70;2.10;;;9.20;98.00;;;;;;4993758;28;20484;-64
2023/11/02 04:17:29;;;;;;;3.33;2.10;;;9.20;98.00;;;;;;4992898;28;20505;-63
2023/11/02 04:19:57;;;;;;;3.27;2.10;;;9.20;98.00;;;;;;4993465;28;20883;-63
2023/11/02 04:22:24;;;;;;;2.43;1.80;;;9.30;98.00;;;;;;4993613;28;20464;-64
2023/11/02 04:24:53;;;;;;;3.37;2.27;;;9.40;98.00;;;;;;4993470;28;20569;-65
2023/11/02 04:27:20;;;;;;;2.07;1.60;;;9.40;98.00;;;;;;4976450;28;20863;-63
2023/11/02 04:29:47;;;;;;;5.63;2.37;;;9.40;98.00;;;;;;4993429;28;20449;-64
2023/11/02 04:32:14;;;;;;;4.20;2.40;;;9.30;98.00;;;;;;4992292;28;20810;-64
2023/11/02 04:34:42;;;;;;;2.67;1.93;;;9.30;98.00;;;;;;4993492;28;20460;-64
2023/11/02 04:37:15;;;;;;;3.43;2.33;;;9.30;98.00;;;;;;4993523;28;20955;-64
2023/11/02 04:39:43;;;;;;;3.40;2.10;;;9.30;98.00;;;;;;4993154;28;20972;-63
2023/11/02 04:42:13;;;;;;;4.90;2.27;;;9.40;98.00;;;;;;4993399;28;20522;-64
2023/11/02 04:44:40;;;;;;;2.53;1.80;;;9.30;98.00;;;;;;4993055;28;20988;-64
2023/11/02 04:47:07;;;;;;;4.10;2.30;;;9.30;98.00;;;;;;4992947;28;20456;-65
2023/11/02 04:49:34;;;;;;;4.80;2.13;;;9.20;98.00;;;;;;4993030;28;20492;-64
2023/11/02 04:52:04;;;;;;;2.60;1.77;;;9.20;98.00;;;;;;4993116;28;20457;-64
2023/11/02 04:54:32;;;;;;;3.93;2.10;;;9.30;98.00;;;;;;4992900;28;20456;-64
2023/11/02 04:56:59;;;;;;;5.83;2.30;;;9.40;98.00;;;;;;4993011;28;20470;-64
2023/11/02 04:59:31;;;;;;;3.93;2.10;;;9.50;98.00;;;;;;4992875;28;20553;-65
2023/11/02 05:01:58;;;;;;;4.30;2.00;;;9.60;98.00;;;;;;4993146;28;20456;-64
2023/11/02 05:04:25;;;;;;;3.67;2.17;;;9.70;98.00;;;;;;4992793;28;20800;-63
2023/11/02 05:06:52;;;;;;;4.30;1.97;;;9.80;98.00;;;;;;4992749;28;20504;-64
2023/11/02 05:09:20;;;;;;;4.17;2.30;;;9.90;98.00;;;;;;4991443;28;20459;-64
2023/11/02 05:11:47;;;;;;;2.93;1.90;;;9.90;98.00;;;;;;4992798;28;20789;-63
2023/11/02 05:14:14;;;;;;;2.60;2.00;;;10.00;98.00;;;;;;4992930;28;20531;-65
2023/11/02 05:16:42;;;;;;;3.03;1.97;;;10.20;98.00;;;;;;4992940;28;20823;-64
2023/11/02 05:19:10;;;;;;;3.03;1.90;;;10.20;98.00;;;;;;4992789;28;20479;-65
2023/11/02 05:21:38;;;;;;;3.60;2.13;;;10.20;98.00;;;;;;4992651;28;20498;-65
2023/11/02 05:24:05;;;;;;;3.30;2.27;;;10.30;98.00;;;;;;4991337;28;20470;-64
2023/11/02 05:26:32;;;;;;;3.43;2.20;;;10.30;98.00;;;;;;4992418;28;20495;-64
2023/11/02 05:29:00;;;;;;;3.90;1.87;;;10.40;98.00;;;;;;4992153;28;20552;-65
2023/11/02 05:31:27;;;;;;;2.40;2.00;;;10.40;98.00;;;;;;4992253;28;20456;-63
2023/11/02 05:33:56;;;;;;;4.13;2.17;;;10.50;98.00;;;;;;4992203;28;20946;-65
2023/11/02 05:36:25;;;;;;;2.90;2.10;;;10.50;98.00;;;;;;4992154;28;20967;-65
2023/11/02 05:38:52;;;;;;;2.57;1.80;;;10.50;98.00;;;;;;4992275;28;20515;-65
2023/11/02 05:41:19;;;;;;;2.43;2.00;;;10.50;98.00;;;;;;4992074;28;20505;-65
2023/11/02 05:43:52;;;;;;;3.50;1.97;;;10.60;98.00;;;;;;4991844;28;20456;-65
2023/11/02 05:46:19;;;;;;;2.73;1.93;;;10.60;98.00;;;;;;4992015;28;20627;-65
2023/11/02 05:48:46;;;;;;;3.50;1.90;;;10.60;98.00;;;;;;4991785;28;20454;-65
2023/11/02 05:51:15;;;;;;;2.60;1.93;;;10.60;98.00;;;;;;4991708;28;20541;-64
2023/11/02 05:53:42;;;;;;;2.63;1.80;;;10.70;98.00;;;;;;4992069;28;20448;-65
2023/11/02 05:56:10;;;;;;;2.30;1.90;;;10.70;98.00;;;;;;4992217;28;20476;-67
2023/11/02 05:58:37;;;;;;;3.30;1.97;;;10.70;98.00;;;;;;4992030;28;20455;-65
2023/11/02 06:01:05;;;;;;;2.47;1.80;;;10.80;98.00;;;;;;4991955;28;20461;-65
2023/11/02 06:03:32;;;;;;;3.70;1.90;;;10.80;98.00;;;;;;4991966;28;20543;-66
2023/11/02 06:05:59;;;;;;;2.47;2.00;;;10.90;98.00;;;;;;4991970;28;20959;-64
2023/11/02 06:08:27;;;;;;;2.90;1.80;;;10.80;98.00;;;;;;4992110;28;20487;-65
2023/11/02 06:10:54;;;;;;;4.27;2.20;;;10.90;98.00;;;;;;4991855;28;20460;-65
2023/11/02 06:13:22;;;;;;;2.47;1.60;;;10.90;98.00;;;;;;4992036;28;20464;-66
2023/11/02 06:15:50;;;;;;;3.43;1.93;;;10.90;98.00;;;;;;4990542;28;20808;-64
2023/11/02 06:18:17;;;;;;;4.33;1.83;;;10.90;98.00;;;;;;4990496;28;20474;-65
2023/11/02 06:20:44;;;;;;;2.10;1.60;;;11.00;98.00;;;;;;4991600;28;21026;-65
2023/11/02 06:23:13;;;;;;;4.53;1.80;;;11.10;98.00;;;;;;4991920;28;20453;-65
2023/11/02 06:25:41;;;;;;;3.63;1.83;;;11.10;98.00;;;;;;4991625;28;20569;-65
2023/11/02 06:28:10;;;;;;;1.80;1.57;;;11.20;98.00;;;;;;4991915;28;20462;-66
2023/11/02 06:30:37;;;;;;;1.97;1.63;;;11.20;98.00;;;;;;4991626;28;20463;-65
2023/11/02 06:33:07;;;;;;;1.77;1.40;;;11.30;98.00;;;;;;4991872;28;20804;-65
2023/11/02 06:35:35;;;;;;;3.50;1.57;;;11.20;98.00;;;;;;4991812;28;20462;-66
2023/11/02 06:38:04;;;;;;;2.07;1.60;;;11.20;98.00;;;;;;4991628;28;20454;-65
2023/11/02 06:40:31;;;;;;;2.47;1.50;;;11.20;98.00;;;;;;4993536;28;20501;-66
2023/11/02 06:43:00;;;;;;;1.77;1.60;;;11.20;98.00;;;;;;4995611;28;20451;-65
2023/11/02 06:45:32;;;;;;;2.10;1.50;;;11.20;98.00;;;;;;4995390;28;20514;-65
2023/11/02 06:47:59;;;;;;;1.70;1.40;;;11.10;98.00;;;;;;4995569;28;20458;-66
2023/11/02 06:50:26;;;;;;;1.90;1.50;;;11.00;98.00;;;;;;4995399;28;20963;-65
2023/11/02 06:52:53;;;;;;;5.80;1.90;;;11.00;98.00;;;;;;4995561;28;20546;-66
2023/11/02 06:55:20;;;;;;;2.53;1.70;;;11.00;98.00;;;;;;4995731;28;20476;-64
2023/11/02 06:57:47;;;;;;;2.83;1.57;;;10.90;98.00;;;;;;4995651;28;20446;-65
2023/11/02 07:00:17;;;;;;;1.57;1.43;;;10.80;98.00;;;;;;4995599;28;20463;-61
2023/11/02 07:02:44;;;;;;;8.70;1.80;;;10.60;98.00;;;;;;4995330;28;20456;-61
2023/11/02 07:05:12;;;;;;;1.97;1.70;;;10.60;98.00;;;;;;4994013;28;21005;-60
2023/11/02 07:07:40;;;;;;;2.00;1.50;;;10.60;98.00;;;;;;4995156;28;20459;-61
2023/11/02 07:10:09;;;;;;;8.30;1.70;;;10.70;98.00;;;;;;4993702;28;20457;-61
2023/11/02 07:12:36;;;;;;;2.50;1.80;;;10.60;98.00;;;;;;4995256;28;20548;-61
2023/11/02 07:15:04;;;;;;;2.73;1.60;;;10.50;98.00;;;;;;4995081;28;20457;-62
2023/11/02 07:17:32;;;;;;;3.70;2.30;;;10.50;98.00;;;;;;4994805;28;20462;-61
2023/11/02 07:19:59;;;;;;;3.63;2.33;;;10.40;98.00;;;;;;4995205;28;20479;-61
2023/11/02 07:22:26;;;;;;;3.83;2.37;;;10.50;98.00;;;;;;4995079;28;20456;-61
2023/11/02 07:24:55;;;;;;;4.97;2.70;;;10.60;98.00;;;;;;4994779;28;20468;-61
2023/11/02 07:27:23;;;;;;;5.37;3.00;;;10.60;98.00;;;;;;4994843;28;20890;-61
2023/11/02 07:29:50;;;;;;;5.87;2.60;;;10.60;98.00;;;;;;4994604;28;20449;-61
2023/11/02 07:32:17;;;;;;;3.53;2.30;;;10.60;98.00;;;;;;4994701;28;20560;-60
2023/11/02 07:34:46;;;;;;;2.93;1.67;;;10.60;98.00;;;;;;4994578;28;20462;-61
2023/11/02 07:37:13;;;;;;;2.47;1.70;;;10.50;98.00;;;;;;4994587;28;20479;-61
2023/11/02 07:39:40;;;;;;;1.93;1.50;;;10.50;98.00;;;;;;4994557;28;20455;-60
2023/11/02 07:42:07;;;;;;;1.77;1.63;;;10.60;98.00;;;;;;4994516;28;20466;-61
2023/11/02 07:44:35;;;;;;;3.27;1.90;;;10.70;98.00;;;;;;4993198;28;20462;-61
2023/11/02 07:47:02;;;;;;;1.83;1.60;;;10.80;98.00;;;;;;4994331;28;20536;-62
2023/11/02 07:49:30;;;;;;;2.43;1.70;;;10.90;98.00;;;;;;4992950;28;20501;-61
2023/11/02 07:51:58;;;;;;;2.80;1.80;;;10.80;98.00;;;;;;4992890;28;20821;-61
2023/11/02 07:54:25;;;;;;;7.40;1.90;;;10.80;98.00;;;;;;4994270;28;20850;-60
2023/11/02 07:56:52;;;;;;;2.87;1.93;;;10.70;98.00;;;;;;4994331;28;20458;-60
2023/11/02 07:59:19;;;;;;;2.70;2.00;;;10.70;98.00;;;;;;4994332;28;20928;-60
2023/11/02 08:01:46;;;;;;;4.20;2.20;;;10.90;98.00;;;;;;4994081;28;20979;-61
2023/11/02 08:04:13;;;;;;;2.70;2.10;;;10.70;98.00;;;;;;4994099;28;20470;-62
2023/11/02 08:06:40;;;;;;;3.83;2.10;;;10.60;98.00;;;;;;4992564;28;20560;-61
2023/11/02 08:09:09;;;;;;;4.33;2.10;;;10.60;98.00;;;;;;4993992;28;20457;-61
2023/11/02 08:11:39;;;;;;;3.90;1.93;;;10.60;98.00;;;;;;4994046;28;20575;-61
2023/11/02 08:14:12;;;;;;;4.03;2.10;;;10.60;98.00;;;;;;4992805;28;20973;-60
2023/11/02 08:16:39;;;;;;;2.83;2.00;;;10.60;98.00;;;;;;4992529;28;20469;-61
2023/11/02 08:19:06;;;;;;;1.70;1.63;;;10.60;98.00;;;;;;4993647;28;20486;-60
2023/11/02 08:21:33;;;;;;;2.70;1.67;;;10.70;98.00;;;;;;4993617;28;20463;-62
2023/11/02 08:24:00;;;;;;;2.20;1.60;;;10.70;98.00;;;;;;4993754;28;20462;-62
2023/11/02 08:26:29;;;;;;;4.17;1.40;;;10.70;98.00;;;;;;4993385;28;20490;-61
2023/11/02 08:28:56;;;;;;;2.50;1.77;;;10.70;98.00;;;;;;4993521;28;20940;-60
2023/11/02 08:31:26;;;;;;;3.23;1.60;;;10.70;98.00;;;;;;4993187;28;20450;-61
2023/11/02 08:33:54;;;;;;;2.80;1.77;;;10.60;98.00;;;;;;4993490;28;20463;-61
2023/11/02 08:36:21;;;;;;;12.07;2.00;;;10.60;98.00;;;;;;4993512;28;20531;-61
2023/11/02 08:38:48;;;;;;;2.13;1.50;;;10.60;98.00;;;;;;4993646;28;21129;-60
2023/11/02 08:41:23;;;;;;;1.50;1.50;;;10.60;98.00;;;;;;4993345;28;20872;-61
2023/11/02 08:43:52;;;;;;;2.20;1.60;;;10.70;98.00;;;;;;4993245;28;20464;-61
2023/11/02 08:46:22;;;;;;;2.03;1.73;;;10.70;98.00;;;;;;4993105;28;20862;-63
2023/11/02 08:48:50;;;;;;;2.50;1.77;;;10.70;98.00;;;;;;4999568;28;20459;-61
2023/11/02 08:51:18;;;;;;;3.23;1.50;;;10.70;98.00;;;;;;5012504;28;20513;-60
2023/11/02 08:53:48;;;;;;;2.13;1.60;;;10.70;98.00;;;;;;5012791;28;20459;-61
2023/11/02 08:56:16;;;;;;;2.27;1.77;;;10.80;98.00;;;;;;5012607;28;20456;-61
2023/11/02 08:58:44;;;;;;;2.60;1.70;;;10.70;98.00;;;;;;5012578;28;20527;-60
2023/11/02 09:01:18;;;;;;;3.37;1.57;;;10.80;98.00;;;;;;5012274;28;20443;-60
2023/11/02 09:03:47;;;;;;;2.27;1.80;;;10.80;98.00;;;;;;5008988;28;20812;-61
2023/11/02 09:06:15;;;;;;;4.03;1.70;;;10.70;98.00;;;;;;4992663;28;20485;-62
2023/11/02 09:08:42;;;;;;;3.40;1.63;;;10.70;98.00;;;;;;4992853;28;20474;-62
2023/11/02 09:11:09;;;;;;;3.33;1.80;;;10.70;98.00;;;;;;4992773;28;20472;-63
2023/11/02 09:13:39;;;;;;;2.83;1.67;;;10.70;98.00;;;;;;4992698;28;20457;-60
2023/11/02 09:16:07;;;;;;;4.13;2.00;;;10.60;98.00;;;;;;4992528;28;20800;-59
2023/11/02 09:18:36;;;;;;;3.60;1.97;;;10.50;98.00;;;;;;4992681;28;20459;-59
2023/11/02 09:21:04;;;;;;;2.90;1.70;;;10.50;98.00;;;;;;4992505;28;20467;-61
2023/11/02 09:23:32;;;;;;;2.50;2.00;;;10.60;98.00;;;;;;4992403;28;20571;-61
2023/11/02 09:25:59;;;;;;;2.77;1.87;;;10.70;98.00;;;;;;4998041;28;20480;-60
2023/11/02 09:28:26;;;;;;;2.63;1.70;;;10.90;98.00;;;;;;5005552;28;20816;-61
2023/11/02 09:30:54;;;;;;;7.47;1.57;;;11.00;98.00;;;;;;4992453;28;20468;-62
2023/11/02 09:33:21;;;;;;;1.90;1.60;;;10.90;98.00;;;;;;4991117;28;20460;-61
2023/11/02 09:35:50;;;;;;;2.23;1.80;;;10.80;98.00;;;;;;4992193;28;20879;-61
2023/11/02 09:38:17;;;;;;;2.50;1.83;;;10.90;98.00;;;;;;4992320;28;20462;-61
2023/11/02 09:40:44;;;;;;;2.20;1.80;;;11.00;98.00;;;;;;4993547;28;20449;-60
2023/11/02 09:43:13;;;;;;;5.80;2.80;;;11.00;98.00;;;;;;4992198;28;20464;-61
2023/11/02 09:45:43;;;;;;;3.00;2.20;;;11.00;98.00;;;;;;4991173;28;20467;-61
2023/11/02 09:48:11;;;;;;;3.40;2.03;;;11.00;98.00;;;;;;4992079;28;20507;-60
2023/11/02 09:50:38;;;;;;;2.47;2.00;;;10.90;98.00;;;;;;4991987;28;20976;-61
2023/11/02 09:53:08;;;;;;;3.60;2.30;;;10.90;98.00;;;;;;4991760;28;20554;-61
2023/11/02 09:55:38;;;;;;;4.23;2.40;;;11.00;98.00;;;;;;4991862;28;20489;-60
2023/11/02 09:58:07;;;;;;;3.37;2.27;;;10.90;98.00;;;;;;4990980;28;20477;-62
2023/11/02 10:00:34;;;;;;;2.63;1.90;;;10.90;98.00;;;;;;4991820;28;20469;-60
2023/11/02 10:03:02;;;;;;;6.40;2.23;;;11.20;98.00;;;;;;4991796;28;20494;-62
2023/11/02 10:05:29;;;;;;;3.03;2.00;;;11.30;98.00;;;;;;4990223;28;20480;-61
2023/11/02 10:07:57;;;;;;;2.17;1.70;;;11.30;98.00;;;;;;4991798;28;20545;-61
2023/11/02 10:10:31;;;;;;;2.33;1.77;;;11.20;98.00;;;;;;5003681;28;20451;-61
2023/11/02 10:12:58;;;;;;;2.20;1.70;;;11.30;98.00;;;;;;5011706;28;20849;-61
2023/11/02 10:15:26;;;;;;;3.13;1.50;;;11.30;98.00;;;;;;5008688;28;20462;-62
2023/11/02 10:17:54;;;;;;;2.07;1.70;;;11.40;98.00;;;;;;4996785;28;20459;-61
2023/11/02 10:20:22;;;;;;;3.20;2.20;;;11.50;98.00;;;;;;5011352;28;20490;-62
2023/11/02 10:22:59;;;;;;;3.73;2.17;;;11.50;98.00;;;;;;5010171;28;20958;-60
2023/11/02 10:25:29;;;;;;;1.40;1.30;;;11.60;98.00;;;;;;5011435;28;20451;-61
2023/11/02 10:27:57;;;;;;;2.80;2.00;;;11.70;98.00;;;;;;5011201;28;20579;-62
2023/11/02 10:30:25;;;;;;;1.60;1.40;;;11.70;98.00;;;;;;5010992;28;20458;-61
2023/11/02 10:32:52;;;;;;;2.50;1.50;;;11.80;98.00;;;;;;5011199;28;20489;-60
2023/11/02 10:35:20;;;;;;;1.93;1.47;;;11.80;98.00;;;;;;5011199;28;20887;-62
2023/11/02 10:37:51;;;;;;;1.80;1.43;;;11.90;98.00;;;;;;5011218;28;21130;-60
2023/11/02 10:40:19;;;;;;;2.90;1.70;;;12.00;98.00;;;;;;5011113;28;20510;-63
2023/11/02 10:42:47;;;;;;;2.73;1.60;;;12.00;98.00;;;;;;5010925;28;20451;-63
2023/11/02 10:45:15;;;;;;;1.63;1.33;;;12.10;98.00;;;;;;5010813;28;20454;-62
2023/11/02 10:47:43;;;;;;;2.27;1.30;;;12.00;98.00;;;;;;5010143;28;20534;-62
2023/11/02 10:50:13;;;;;;;1.60;1.40;;;12.10;98.00;;;;;;5010940;28;20454;-63
2023/11/02 10:52:46;;;;;;;2.33;1.70;;;12.10;98.00;;;;;;5010980;28;20882;-61
2023/11/02 10:55:22;;;;;;;1.70;1.37;;;12.10;98.00;;;;;;5010777;28;20497;-62
2023/11/02 10:57:52;;;;;;;2.07;1.37;;;12.20;98.00;;;;;;5010980;28;20948;-63
2023/11/02 11:00:22;;;;;;;1.37;1.30;;;12.30;98.00;;;;;;5010921;28;20839;-62
2023/11/02 11:02:51;;;;;;;2.13;1.47;;;12.30;98.00;;;;;;5011036;28;20459;-62
2023/11/02 11:05:19;;;;;;;1.90;1.47;;;12.30;98.00;;;;;;5010996;28;20454;-62
2023/11/02 11:07:52;;;;;;;2.00;1.50;;;12.40;98.00;;;;;;5010769;28;20589;-63
2023/11/02 11:10:20;;;;;;;2.10;1.40;;;12.30;98.00;;;;;;5010695;28;20453;-62
2023/11/02 11:12:50;;;;;;;2.63;1.53;;;12.30;98.00;;;;;;5010816;28;20462;-62
2023/11/02 11:15:22;;;;;;;2.47;1.63;;;12.30;98.00;;;;;;5010758;28;20500;-61
2023/11/02 11:17:50;;;;;;;1.50;1.40;;;12.30;98.00;;;;;;5010773;28;20495;-62
2023/11/02 11:20:18;;;;;;;4.67;1.70;;;12.30;98.00;;;;;;5008108;28;21032;-62
2023/11/02 11:22:48;;;;;;;1.80;1.40;;;12.40;98.00;;;;;;5010661;28;20828;-63
2023/11/02 11:25:15;;;;;;;1.90;1.33;;;12.40;98.00;;;;;;5010593;28;20458;-62
2023/11/02 11:27:43;;;;;;;1.73;1.30;;;12.40;98.00;;;;;;5013159;28;20494;-62
2023/11/02 11:30:37;;;;;;;1.77;1.50;;;12.40;98.00;;;;;;5014183;28;20459;-62
2023/11/02 11:33:04;;;;;;;1.30;1.27;;;12.40;98.00;;;;;;5014242;28;20945;-61
2023/11/02 11:35:32;;;;;;;1.40;1.40;;;12.30;98.00;;;;;;5014042;28;20952;-63
2023/11/02 11:38:00;;;;;;;1.30;1.20;;;12.30;98.00;;;;;;5012902;28;20453;-61
2023/11/02 11:40:40;;;;;;;1.53;1.10;;;12.30;98.00;;;;;;5013993;28;20452;-62
2023/11/02 11:43:12;;;;;;;1.60;1.30;;;12.20;98.00;;;;;;5012963;28;20477;-62
2023/11/02 11:45:50;;;;;;;1.30;1.20;;;12.20;98.00;;;;;;5014138;28;20466;-62
2023/11/02 11:48:37;;;;;;;1.40;1.20;;;12.20;98.00;;;;;;5014112;28;20529;-62
2023/11/02 11:51:38;;;;;;;2.07;1.20;;;12.20;98.00;;;;;;5013822;28;20945;-61
2023/11/02 11:54:09;;;;;;;1.20;1.10;;;12.20;98.00;;;;;;5014137;28;20888;-63
2023/11/02 11:56:37;;;;;;;1.30;1.03;;;12.20;98.00;;;;;;5013877;28;20537;-61
2023/11/02 11:59:06;;;;;;;3.10;1.20;;;12.20;98.00;;;;;;5012828;28;20998;-61
2023/11/02 12:01:35;;;;;;;1.23;1.07;;;12.20;98.00;;;;;;5013633;28;20465;-62
2023/11/02 12:04:04;;;;;;;2.13;1.30;;;12.20;98.00;;;;;;5013538;28;20549;-62
2023/11/02 12:06:41;;;;;;;3.07;1.50;;;12.10;98.00;;;;;;5013325;28;20454;-63
2023/11/02 12:09:12;;;;;;;1.30;1.00;;;12.10;98.00;;;;;;5013672;28;20898;-62
2023/11/02 12:11:41;;;;;;;2.87;1.90;;;12.10;98.00;;;;;;5013648;28;20945;-63
2023/11/02 12:14:14;;;;;;;2.53;1.60;;;12.10;98.00;;;;;;5013883;28;20455;-61
2023/11/02 12:16:43;;;;;;;2.53;1.47;;;12.00;98.00;;;;;;5013497;28;20517;-62
2023/11/02 12:19:11;;;;;;;4.10;2.10;;;12.00;98.00;;;;;;5013755;28;20898;-61
2023/11/02 12:21:40;;;;;;;4.60;2.57;;;12.00;98.00;;;;;;5013607;28;20445;-61
2023/11/02 12:24:11;;;;;;;3.80;2.07;;;12.00;98.00;;;;;;5013847;28;20812;-61
2023/11/02 12:26:39;;;;;;;1.50;1.40;;;12.00;98.00;;;;;;5013424;28;20963;-63
2023/11/02 12:29:09;;;;;;;2.73;1.40;;;11.90;98.00;;;;;;5013786;28;20534;-62
2023/11/02 12:31:38;;;;;;;2.77;1.53;;;12.00;98.00;;;;;;5013684;28;21129;-62
2023/11/02 12:34:10;;;;;;;1.70;1.37;;;12.00;98.00;;;;;;5013800;28;20855;-62
2023/11/02 12:36:39;;;;;;;2.20;1.47;;;11.90;98.00;;;;;;5013647;28;20454;-61
2023/11/02 12:39:11;;;;;;;1.90;1.20;;;11.90;98.00;;;;;;5012975;28;20452;-62
2023/11/02 12:41:40;;;;;;;1.37;1.23;;;11.90;98.00;;;;;;5013491;28;20463;-61
2023/11/02 12:44:09;;;;;;;1.50;1.30;;;11.90;98.00;;;;;;5012466;28;20521;-61
2023/11/02 12:46:37;;;;;;;1.30;1.20;;;11.90;98.00;;;;;;5013412;28;20468;-62
2023/11/02 12:49:16;;;;;;;4.03;1.23;;;11.90;98.00;;;;;;5013495;28;20933;-61
2023/11/02 12:51:44;;;;;;;1.73;1.30;;;11.90;98.00;;;;;;5013386;28;20458;-61
2023/11/02 12:54:14;;;;;;;1.50;1.37;;;11.90;98.00;;;;;;5012608;28;20990;-62
2023/11/02 12:56:44;;;;;;;2.40;1.20;;;11.90;98.00;;;;;;5013180;28;21125;-62
2023/11/02 12:59:12;;;;;;;2.53;1.40;;;11.90;98.00;;;;;;5013380;28;20453;-62
2023/11/02 13:01:48;;;;;;;1.40;1.20;;;11.80;98.00;;;;;;5013274;28;20449;-62
2023/11/02 13:04:17;;;;;;;1.70;1.30;;;11.80;98.00;;;;;;5013425;28;20474;-62
2023/11/02 13:06:45;;;;;;;1.37;1.10;;;11.80;98.00;;;;;;5013243;28;20455;-62
2023/11/02 13:09:16;;;;;;;2.23;1.50;;;11.80;98.00;;;;;;5013308;28;20659;-62